Terminal Aerodrome Forecast
Issued by NWS

Home | Current Version | Previous Version | Text Only | Print | Product List | Glossary On
Versions: 1 2 3 4 5 6 7 8 9 10 11 12 13 14 15 16
000
FTUS46 KLOX 310300 AAB
TAFLGB
TAF AMD
KLGB 310302Z 3103/3124 30010KT P6SM SCT019 BKN200
     FM310600 26005KT P6SM BKN019 BKN200
     FM310900 VRB03KT 5SM -DZ BR BKN009 BKN019
     FM311400 14004KT 6SM BR BKN012 OVC024
     FM311800 17006KT P6SM BKN025 BKN050
     FM312200 21008KT P6SM -SHRA BKN025 OVC040=

USA.gov is the U.S. government's official web portal to all federal, state and local government web resources and services.